Time;durP1;ratioP1;P1;durP2;ratioP2;P2;SDS_P1;SDS_P2;PMS_P1;PMS_P2;Temp;Humidity;BMP_temperature;BMP_pressure;BME280_temperature;BME280_humidity;BME280_pressure;Samples;Min_cycle;Max_cycle;Signal;HPM_P1;HPM_P2
2021/10/16 00:01:51;;;;;;;30.10;20.02;;;;;;;15.82;49.87;100917.32;1655529;85;21030;-75
2021/10/16 00:04:17;;;;;;;32.08;22.42;;;;;;;15.71;50.52;100914.77;1672852;83;21244;-75
2021/10/16 00:06:46;;;;;;;26.33;18.95;;;;;;;15.77;50.77;100912.67;1684687;84;21014;-74
2021/10/16 00:09:12;;;;;;;27.93;18.92;;;;;;;15.93;50.22;100907.52;1728227;81;21547;-68
2021/10/16 00:11:38;;;;;;;27.05;17.45;;;;;;;15.98;50.07;100902.96;1731571;81;21026;-76
2021/10/16 00:14:06;;;;;;;26.82;18.52;;;;;;;15.98;49.95;100906.39;1726907;81;21003;-73
2021/10/16 00:16:32;;;;;;;24.65;17.95;;;;;;;16.02;49.74;100914.69;1721371;81;21146;-67
2021/10/16 00:18:59;;;;;;;26.70;17.87;;;;;;;16.16;49.22;100916.31;1700416;83;21161;-75
2021/10/16 00:21:26;;;;;;;24.25;16.97;;;;;;;16.24;48.69;100908.20;1721761;81;21006;-75
2021/10/16 00:23:54;;;;;;;23.00;16.95;;;;;;;16.15;48.57;100909.44;1721424;81;20956;-75
2021/10/16 00:26:20;;;;;;;23.73;16.75;;;;;;;15.96;48.98;100902.38;1721937;81;21429;-75
2021/10/16 00:28:47;;;;;;;28.20;17.55;;;;;;;15.93;49.16;100904.08;1720888;81;21146;-76
2021/10/16 00:31:13;;;;;;;23.85;16.87;;;;;;;15.86;49.36;100898.02;1725812;81;20974;-73
2021/10/16 00:33:40;;;;;;;27.93;16.45;;;;;;;15.82;49.40;100893.66;1700290;83;21132;-77
2021/10/16 00:36:07;;;;;;;24.35;15.72;;;;;;;15.94;49.02;100901.24;1721707;81;20967;-78
2021/10/16 00:38:33;;;;;;;23.70;15.93;;;;;;;15.92;48.75;100896.70;1704086;83;21546;-70
2021/10/16 00:41:00;;;;;;;22.85;14.65;;;;;;;16.05;48.45;100894.06;1720465;83;21136;-76
2021/10/16 00:43:28;;;;;;;23.45;15.63;;;;;;;16.11;48.06;100894.27;1726498;81;20998;-75
2021/10/16 00:45:54;;;;;;;20.05;13.95;;;;;;;16.12;47.91;100888.80;1721579;81;21003;-76
2021/10/16 00:48:20;;;;;;;21.17;14.23;;;;;;;16.03;47.80;100892.16;1721284;81;21098;-76
2021/10/16 00:50:47;;;;;;;19.42;13.53;;;;;;;16.13;47.57;100893.04;1721099;81;20945;-67
2021/10/16 00:53:14;;;;;;;19.98;14.15;;;;;;;16.25;47.26;100899.33;1721710;81;21164;-70
2021/10/16 00:55:41;;;;;;;21.62;14.20;;;;;;;16.25;47.09;100890.59;1722895;81;21022;-76
2021/10/16 00:58:09;;;;;;;20.27;13.00;;;;;;;16.27;46.90;100897.28;1734003;81;20881;-75
2021/10/16 01:00:36;;;;;;;21.65;14.50;;;;;;;16.13;47.11;100898.81;1722004;81;20979;-72
2021/10/16 01:03:03;;;;;;;18.98;12.98;;;;;;;16.24;46.88;100888.47;1720597;81;21405;-73
2021/10/16 01:05:30;;;;;;;20.00;13.75;;;;;;;16.38;46.51;100880.58;1702860;81;21114;-71
2021/10/16 01:07:58;;;;;;;18.77;12.23;;;;;;;16.40;46.21;100886.42;1702264;82;21090;-74
2021/10/16 01:10:25;;;;;;;19.15;13.20;;;;;;;16.57;45.69;100878.40;1702381;82;21016;-74
2021/10/16 01:12:54;;;;;;;19.37;13.62;;;;;;;16.63;45.39;100880.22;1700605;83;20937;-74
2021/10/16 01:15:23;;;;;;;17.62;12.20;;;;;;;16.68;45.07;100877.75;1700700;83;21065;-75
2021/10/16 01:17:50;;;;;;;18.40;12.43;;;;;;;16.58;45.18;100878.69;1668041;83;21166;-74
2021/10/16 01:20:21;;;;;;;16.97;11.40;;;;;;;16.44;45.30;100875.78;1663520;84;21583;-74
2021/10/16 01:22:49;;;;;;;17.27;11.60;;;;;;;16.39;45.41;100874.29;1669257;84;20984;-75
2021/10/16 01:25:21;;;;;;;21.55;14.15;;;;;;;16.35;45.60;100873.89;1655573;85;21049;-75
2021/10/16 01:27:48;;;;;;;18.17;12.73;;;;;;;16.47;45.37;100867.48;1655086;85;21018;-72
2021/10/16 01:30:21;;;;;;;20.43;11.57;;;;;;;16.49;45.22;100866.78;1655682;85;21169;-75
2021/10/16 01:32:48;;;;;;;17.62;11.63;;;;;;;16.54;45.11;100855.92;1655051;84;21057;-76
2021/10/16 01:35:15;;;;;;;18.55;12.75;;;;;;;16.56;44.98;100852.30;1647444;84;21088;-76
2021/10/16 01:37:46;;;;;;;16.90;11.55;;;;;;;16.58;44.90;100852.88;1654850;85;21503;-74
2021/10/16 01:40:14;;;;;;;17.92;11.90;;;;;;;16.53;44.90;100859.58;1655606;85;21149;-75
2021/10/16 01:42:42;;;;;;;17.73;11.18;;;;;;;16.35;45.18;100855.98;1653532;85;21761;-75
2021/10/16 01:45:16;;;;;;;21.10;12.50;;;;;;;16.09;45.64;100858.95;1655263;85;21509;-74
2021/10/16 01:47:51;;;;;;;16.95;11.80;;;;;;;16.10;45.76;100855.34;1692119;82;21477;-76
2021/10/16 01:50:22;;;;;;;19.42;13.05;;;;;;;16.18;45.64;100850.37;1702003;81;20948;-75
2021/10/16 01:52:48;;;;;;;16.50;11.68;;;;;;;16.12;45.69;100843.28;1662374;83;21141;-75
2021/10/16 01:55:15;;;;;;;18.02;11.95;;;;;;;16.16;45.58;100840.55;1666627;84;21813;-67
2021/10/16 01:57:41;;;;;;;16.80;11.33;;;;;;;16.28;45.32;100835.75;1655010;85;21094;-76
2021/10/16 02:00:10;;;;;;;16.00;11.97;;;;;;;16.09;45.60;100833.97;1655508;85;21394;-73
2021/10/16 02:02:37;;;;;;;15.83;11.65;;;;;;;16.06;45.77;100830.44;1650100;85;21063;-76
2021/10/16 02:05:22;;;;;;;19.25;12.30;;;;;;;16.04;45.74;100829.34;1709269;82;20959;-71
2021/10/16 02:07:50;;;;;;;17.32;11.85;;;;;;;16.10;45.70;100829.03;1702643;81;21162;-71
2021/10/16 02:10:17;;;;;;;17.85;11.93;;;;;;;16.13;45.53;100822.54;1725755;81;22299;-75
2021/10/16 02:12:45;;;;;;;18.48;12.68;;;;;;;16.27;45.22;100817.05;1714990;82;20960;-74
2021/10/16 02:15:12;;;;;;;16.97;11.95;;;;;;;16.26;45.17;100823.33;1717702;82;20940;-71
2021/10/16 02:17:40;;;;;;;17.70;11.68;;;;;;;16.17;45.22;100826.38;1712054;83;20960;-75
2021/10/16 02:20:10;;;;;;;19.15;11.88;;;;;;;16.19;45.17;100830.42;1706775;82;21140;-74
2021/10/16 02:22:37;;;;;;;20.52;12.35;;;;;;;16.24;45.07;100833.75;1690595;82;21489;-76
2021/10/16 02:25:05;;;;;;;18.00;12.45;;;;;;;16.21;45.04;100837.62;1717725;81;21018;-75
2021/10/16 02:27:31;;;;;;;13.60;10.65;;;;;;;16.14;45.14;100831.55;1723041;81;21551;-69
2021/10/16 02:29:59;;;;;;;14.40;10.98;;;;;;;16.15;45.09;100824.47;1697965;83;22430;-75
2021/10/16 02:32:26;;;;;;;17.73;11.55;;;;;;;16.11;45.18;100825.38;1697612;83;21149;-76
2021/10/16 02:34:53;;;;;;;17.45;11.60;;;;;;;16.02;45.32;100818.70;1713601;81;21002;-75
2021/10/16 02:37:21;;;;;;;16.87;11.08;;;;;;;16.11;45.21;100814.87;1714338;82;20987;-70
2021/10/16 02:39:48;;;;;;;15.68;11.25;;;;;;;16.16;45.14;100819.50;1713637;81;21047;-67
2021/10/16 02:42:15;;;;;;;17.50;11.40;;;;;;;16.15;45.24;100820.52;1697494;83;21572;-77
2021/10/16 02:44:42;;;;;;;16.77;11.85;;;;;;;16.20;45.01;100825.45;1698873;83;21151;-75
2021/10/16 02:47:08;;;;;;;16.73;11.33;;;;;;;16.55;44.40;100817.25;1718451;82;20880;-74
2021/10/16 02:49:36;;;;;;;16.37;10.93;;;;;;;16.87;43.76;100810.78;1713881;81;21071;-67
2021/10/16 02:52:04;;;;;;;16.23;10.35;;;;;;;16.98;43.37;100807.48;1714109;81;21932;-66
2021/10/16 02:54:31;;;;;;;14.78;10.48;;;;;;;16.45;43.97;100805.06;1714826;82;21635;-75
2021/10/16 02:56:59;;;;;;;15.43;11.28;;;;;;;16.34;44.45;100796.50;1713731;82;21890;-76
2021/10/16 02:59:25;;;;;;;18.07;11.65;;;;;;;16.24;44.58;100792.97;1714989;81;20912;-73
2021/10/16 03:01:53;;;;;;;19.48;10.93;;;;;;;16.20;44.77;100793.09;1722096;80;20988;-73
2021/10/16 03:04:21;;;;;;;16.75;11.45;;;;;;;16.27;44.61;100790.73;1727187;81;20984;-75
2021/10/16 03:06:48;;;;;;;20.57;12.03;;;;;;;16.31;44.61;100783.23;1743906;81;21055;-75
2021/10/16 03:09:17;;;;;;;16.67;11.75;;;;;;;16.56;44.22;100778.09;1751696;81;21133;-75
2021/10/16 03:11:45;;;;;;;19.70;12.40;;;;;;;16.67;43.94;100781.89;1745510;81;20857;-74
2021/10/16 03:14:12;;;;;;;16.35;12.03;;;;;;;16.72;43.72;100780.23;1746628;80;21004;-72
2021/10/16 03:16:40;;;;;;;17.00;12.55;;;;;;;16.76;43.56;100774.07;1733572;80;21313;-76
2021/10/16 03:19:09;;;;;;;20.65;12.47;;;;;;;16.69;43.57;100778.02;1734848;81;21012;-75
2021/10/16 03:21:36;;;;;;;17.17;11.28;;;;;;;16.60;43.73;100772.70;1744585;80;21096;-77
2021/10/16 03:24:05;;;;;;;17.00;11.63;;;;;;;16.56;43.85;100766.77;1746695;81;21520;-77
2021/10/16 03:26:31;;;;;;;16.37;10.20;;;;;;;16.47;43.98;100766.17;1759803;81;21201;-75
2021/10/16 03:28:58;;;;;;;15.45;11.78;;;;;;;16.42;44.02;100765.48;1741808;81;21006;-76
2021/10/16 03:31:25;;;;;;;14.80;10.15;;;;;;;16.41;44.19;100761.77;1735461;80;21118;-75
2021/10/16 03:33:53;;;;;;;18.37;10.43;;;;;;;15.73;44.90;100759.52;1750700;81;21112;-67
2021/10/16 03:36:20;;;;;;;14.70;10.43;;;;;;;15.98;44.98;100764.91;1754498;80;21091;-75
2021/10/16 03:38:47;;;;;;;14.35;9.95;;;;;;;16.16;44.73;100764.27;1746102;80;21005;-76
2021/10/16 03:41:14;;;;;;;14.55;9.83;;;;;;;16.15;44.72;100768.73;1734212;81;20987;-75
2021/10/16 03:43:42;;;;;;;16.45;10.10;;;;;;;16.07;44.78;100768.95;1730829;81;21494;-67
2021/10/16 03:46:09;;;;;;;14.03;8.83;;;;;;;16.07;44.84;100773.41;1754664;81;21141;-76
2021/10/16 03:48:36;;;;;;;14.80;9.65;;;;;;;16.16;44.56;100771.65;1733399;80;22442;-75
2021/10/16 03:51:03;;;;;;;16.23;10.18;;;;;;;16.21;44.51;100777.59;1753805;81;20967;-74
2021/10/16 03:53:30;;;;;;;15.85;10.10;;;;;;;16.20;44.47;100774.16;1759037;80;20995;-75
2021/10/16 03:55:57;;;;;;;15.80;10.68;;;;;;;16.25;44.38;100778.31;1733123;81;20917;-75
2021/10/16 03:58:24;;;;;;;13.58;9.30;;;;;;;16.20;44.37;100772.84;1735961;81;21852;-76
2021/10/16 04:00:53;;;;;;;14.98;10.23;;;;;;;16.24;44.34;100761.41;1758983;80;20989;-76
2021/10/16 04:03:19;;;;;;;18.95;11.20;;;;;;;16.34;44.17;100771.50;1735379;80;20996;-75
2021/10/16 04:05:48;;;;;;;18.27;9.65;;;;;;;16.49;43.90;100777.31;1737117;81;20968;-75
2021/10/16 04:08:14;;;;;;;16.48;9.78;;;;;;;16.40;44.13;100777.23;1756772;80;21580;-70
2021/10/16 04:10:41;;;;;;;17.40;9.95;;;;;;;16.37;44.17;100776.35;1759707;80;21209;-75
2021/10/16 04:13:09;;;;;;;15.68;10.30;;;;;;;16.41;44.08;100780.19;1754380;80;20984;-75
2021/10/16 04:15:38;;;;;;;15.23;9.48;;;;;;;16.33;44.23;100784.34;1752406;80;21545;-74
2021/10/16 04:18:05;;;;;;;14.65;9.35;;;;;;;16.37;44.17;100781.62;1758475;81;21427;-74
2021/10/16 04:20:33;;;;;;;15.75;9.95;;;;;;;16.28;44.10;100780.50;1747746;79;20963;-75
2021/10/16 04:23:00;;;;;;;15.43;10.00;;;;;;;16.25;44.28;100790.16;1745781;80;21124;-76
2021/10/16 04:25:28;;;;;;;16.60;10.00;;;;;;;16.27;44.25;100787.30;1754542;80;20995;-76
2021/10/16 04:27:55;;;;;;;17.10;10.70;;;;;;;16.30;44.04;100781.62;1758971;81;20983;-75
2021/10/16 04:30:26;;;;;;;15.05;9.85;;;;;;;16.29;44.09;100780.03;1755434;79;21121;-75
2021/10/16 04:32:55;;;;;;;15.05;9.73;;;;;;;16.22;44.13;100774.78;1738816;80;20991;-76
2021/10/16 04:35:22;;;;;;;15.08;9.55;;;;;;;16.21;44.15;100771.02;1756321;80;21151;-74
2021/10/16 04:37:48;;;;;;;16.52;10.03;;;;;;;16.29;44.03;100763.73;1758763;81;21407;-77
2021/10/16 04:40:22;;;;;;;15.30;10.08;;;;;;;16.23;44.03;100770.32;1755794;80;21058;-76
2021/10/16 04:42:53;;;;;;;16.42;8.98;;;;;;;16.28;44.04;100776.56;1759348;80;20992;-76
2021/10/16 04:45:20;;;;;;;14.45;9.25;;;;;;;16.40;43.90;100774.59;1755657;81;21072;-76
2021/10/16 04:47:47;;;;;;;14.90;9.80;;;;;;;16.49;43.77;100783.89;1723656;80;21082;-75
2021/10/16 04:50:15;;;;;;;15.08;10.53;;;;;;;16.46;43.87;100785.62;1743010;80;21056;-77
2021/10/16 04:52:43;;;;;;;15.23;9.28;;;;;;;16.54;43.93;100779.59;1733611;81;21304;-75
2021/10/16 04:55:12;;;;;;;14.58;9.65;;;;;;;16.64;43.91;100773.90;1756914;81;20979;-75
2021/10/16 04:57:39;;;;;;;14.83;9.45;;;;;;;16.76;43.76;100764.34;1751820;81;21510;-70
2021/10/16 05:00:07;;;;;;;14.83;8.25;;;;;;;16.88;43.73;100753.14;1743462;80;21144;-69
2021/10/16 05:02:35;;;;;;;15.25;8.40;;;;;;;16.91;43.73;100752.20;1758865;80;21035;-74
2021/10/16 05:05:03;;;;;;;13.98;9.23;;;;;;;17.16;43.43;100746.98;1759563;81;21245;-72
2021/10/16 05:07:30;;;;;;;11.45;8.55;;;;;;;17.32;42.97;100747.47;1758928;81;21082;-70
2021/10/16 05:09:58;;;;;;;13.80;8.88;;;;;;;17.22;43.00;100741.35;1759744;81;21038;-71
2021/10/16 05:12:24;;;;;;;13.05;8.45;;;;;;;17.37;42.86;100748.42;1759222;81;21117;-72
2021/10/16 05:14:52;;;;;;;15.13;8.70;;;;;;;17.18;43.06;100746.75;1759618;81;21518;-72
2021/10/16 05:17:20;;;;;;;14.87;9.18;;;;;;;17.38;42.54;100738.69;1759023;81;20952;-71
2021/10/16 05:19:47;;;;;;;13.28;8.18;;;;;;;17.62;41.98;100741.02;1760225;81;21502;-72
2021/10/16 05:22:15;;;;;;;12.35;8.88;;;;;;;17.59;41.99;100740.94;1758873;81;20956;-72
2021/10/16 05:24:41;;;;;;;12.20;8.13;;;;;;;17.48;42.42;100744.28;1736981;81;21116;-73
2021/10/16 05:27:10;;;;;;;11.83;7.80;;;;;;;17.59;42.02;100744.89;1752660;80;21090;-72
2021/10/16 05:29:37;;;;;;;15.85;8.10;;;;;;;17.72;41.85;100746.06;1747548;81;20922;-74
2021/10/16 05:32:05;;;;;;;13.30;8.93;;;;;;;17.87;41.59;100742.30;1759019;81;21072;-74
2021/10/16 05:34:32;;;;;;;11.63;8.03;;;;;;;17.89;41.45;100749.50;1759307;81;21106;-76
2021/10/16 05:36:59;;;;;;;12.45;8.08;;;;;;;17.90;41.30;100745.83;1759334;81;21136;-73
2021/10/16 05:39:28;;;;;;;14.85;8.70;;;;;;;17.91;41.42;100752.70;1759127;81;21015;-71
2021/10/16 05:41:54;;;;;;;14.25;8.80;;;;;;;18.03;41.36;100753.59;1759076;81;21140;-73
2021/10/16 05:44:21;;;;;;;16.20;9.38;;;;;;;18.14;41.24;100754.17;1759634;81;21058;-74
2021/10/16 05:46:48;;;;;;;14.25;10.00;;;;;;;17.60;41.84;100750.45;1759816;81;20892;-76
2021/10/16 05:49:15;;;;;;;14.50;9.27;;;;;;;18.06;41.84;100743.92;1757235;81;21112;-71
2021/10/16 05:51:42;;;;;;;17.07;9.30;;;;;;;18.62;41.17;100742.82;1723511;80;21178;-68
2021/10/16 05:54:08;;;;;;;15.13;8.77;;;;;;;18.95;40.83;100741.59;1741761;81;21164;-71
2021/10/16 05:56:37;;;;;;;11.53;7.70;;;;;;;19.34;39.87;100743.30;1760188;81;21227;-74
2021/10/16 05:59:03;;;;;;;13.23;7.40;;;;;;;19.95;38.80;100728.80;1754538;81;21167;-70
2021/10/16 06:01:31;;;;;;;13.10;7.93;;;;;;;19.36;39.39;100730.67;1754777;81;21175;-67
2021/10/16 06:03:58;;;;;;;12.80;7.77;;;;;;;19.47;39.24;100729.84;1767134;80;21259;-73
2021/10/16 06:06:24;;;;;;;13.50;8.50;;;;;;;19.88;38.46;100725.48;1781000;79;21649;-75
2021/10/16 06:08:51;;;;;;;12.80;7.97;;;;;;;20.16;38.23;100722.89;1779961;80;21199;-72
2021/10/16 06:11:20;;;;;;;12.87;7.67;;;;;;;20.13;37.68;100723.36;1769847;79;21217;-73
2021/10/16 06:13:47;;;;;;;12.63;7.30;;;;;;;20.22;37.52;100719.01;1757052;80;21422;-68
2021/10/16 06:16:13;;;;;;;12.07;8.20;;;;;;;20.22;37.52;100719.01;1752222;78;21530;-73
2021/10/16 06:18:41;;;;;;;10.20;6.90;;;;;;;20.02;37.86;100716.77;1753919;78;21524;-72
2021/10/16 06:21:08;;;;;;;11.37;7.13;;;;;;;20.38;37.29;100720.41;1753325;79;21305;-74
2021/10/16 06:23:37;;;;;;;12.60;6.90;;;;;;;20.56;36.67;100722.06;1785439;78;22199;-75
2021/10/16 06:26:04;;;;;;;9.67;6.83;;;;;;;20.48;36.81;100719.77;1771668;78;21565;-74
2021/10/16 06:28:31;;;;;;;11.20;7.07;;;;;;;21.07;36.07;100714.98;1793661;78;22192;-74
2021/10/16 06:30:58;;;;;;;8.47;6.27;;;;;;;22.01;34.96;100704.91;1781402;78;21719;-74
2021/10/16 06:33:25;;;;;;;9.63;6.73;;;;;;;22.27;35.28;100705.20;1792084;78;21094;-76
2021/10/16 06:35:52;;;;;;;11.63;7.47;;;;;;;22.27;35.28;100705.20;1775528;79;21497;-74
2021/10/16 06:38:26;;;;;;;9.80;6.20;;;;;;;23.17;33.73;100697.52;1781010;78;21188;-77
2021/10/16 06:40:53;;;;;;;10.30;6.83;;;;;;;24.02;32.48;100687.59;1780956;79;21446;-74
2021/10/16 06:43:33;;;;;;;9.63;6.07;;;;;;;24.63;31.51;100688.27;1718769;78;21627;-71
2021/10/16 06:46:18;;;;;;;12.57;6.90;;;;;;;25.10;30.65;100686.66;1772329;78;21815;-73
2021/10/16 06:49:02;;;;;;;12.90;6.90;;;;;;;25.18;29.80;100686.65;1781142;79;21158;-69
2021/10/16 06:51:30;;;;;;;9.20;6.30;;;;;;;25.04;29.59;100678.89;1769207;78;21057;-71
2021/10/16 06:53:56;;;;;;;8.70;6.10;;;;;;;24.93;29.74;100686.93;1772893;79;22539;-71
2021/10/16 06:56:23;;;;;;;9.30;6.60;;;;;;;24.97;30.16;100673.32;1772914;78;21120;-70
2021/10/16 06:58:50;;;;;;;9.10;5.87;;;;;;;25.12;29.80;100670.41;1778083;78;20980;-69
2021/10/16 07:01:16;;;;;;;9.83;6.37;;;;;;;25.39;29.42;100676.73;1782697;78;20959;-69
2021/10/16 07:03:51;;;;;;;10.37;6.37;;;;;;;25.31;28.98;100670.09;1742096;79;21589;-70
2021/10/16 07:06:18;;;;;;;10.57;6.20;;;;;;;25.10;29.08;100657.86;1754939;81;20999;-70
2021/10/16 07:08:45;;;;;;;11.83;5.97;;;;;;;25.10;29.37;100659.19;1758974;81;21063;-75
2021/10/16 07:11:11;;;;;;;8.43;5.33;;;;;;;25.17;29.05;100671.72;1758629;81;20980;-72
2021/10/16 07:13:38;;;;;;;7.13;5.20;;;;;;;25.05;29.08;100668.52;1747296;81;22163;-72
2021/10/16 07:16:05;;;;;;;7.73;5.73;;;;;;;25.02;29.29;100661.05;1760059;81;21648;-70
2021/10/16 07:18:31;;;;;;;10.00;6.13;;;;;;;25.28;29.14;100654.62;1759809;81;21155;-69
2021/10/16 07:20:59;;;;;;;7.73;5.40;;;;;;;25.51;28.76;100656.41;1759838;81;20921;-73
2021/10/16 07:23:28;;;;;;;6.73;4.77;;;;;;;25.50;29.00;100658.83;1759091;81;21459;-70
2021/10/16 07:25:57;;;;;;;8.80;4.90;;;;;;;25.90;28.43;100641.84;1758339;81;21486;-70
2021/10/16 07:28:23;;;;;;;7.07;4.67;;;;;;;26.41;28.43;100645.53;1747342;81;21798;-72
2021/10/16 07:30:50;;;;;;;9.23;5.37;;;;;;;26.96;27.31;100650.69;1741799;81;21559;-71
2021/10/16 07:33:17;;;;;;;8.00;4.77;;;;;;;26.85;27.24;100647.30;1754043;80;21499;-72
2021/10/16 07:35:45;;;;;;;7.47;4.50;;;;;;;26.90;26.94;100649.41;1748309;80;21121;-75
2021/10/16 07:38:12;;;;;;;6.30;4.47;;;;;;;27.01;26.51;100645.27;1755747;81;21044;-74
2021/10/16 07:40:39;;;;;;;7.20;4.60;;;;;;;26.77;26.90;100642.03;1753053;81;21192;-74
2021/10/16 07:43:06;;;;;;;5.90;4.63;;;;;;;26.51;26.92;100630.75;1749964;81;20964;-71
2021/10/16 07:45:32;;;;;;;7.40;4.93;;;;;;;26.24;27.06;100620.52;1744862;81;21073;-74
2021/10/16 07:47:59;;;;;;;8.03;4.80;;;;;;;26.29;27.50;100623.16;1743688;80;20952;-72
2021/10/16 07:50:26;;;;;;;8.40;4.90;;;;;;;26.48;27.11;100619.81;1745595;81;21566;-73
2021/10/16 07:52:52;;;;;;;6.90;4.70;;;;;;;26.39;27.10;100624.95;1747564;81;21226;-72
2021/10/16 07:55:20;;;;;;;6.50;4.60;;;;;;;26.40;27.26;100624.69;1742684;81;20892;-72
2021/10/16 07:57:46;;;;;;;7.40;4.70;;;;;;;26.62;27.26;100618.89;1747694;81;20923;-72
2021/10/16 08:00:13;;;;;;;7.13;4.70;;;;;;;26.97;26.76;100622.30;1745242;80;21531;-73
2021/10/16 08:02:40;;;;;;;9.17;5.03;;;;;;;27.06;26.44;100617.94;1752126;79;20923;-73
2021/10/16 08:05:07;;;;;;;6.23;4.37;;;;;;;27.01;26.25;100618.00;1774319;78;22319;-74
2021/10/16 08:07:34;;;;;;;7.20;4.43;;;;;;;27.06;26.32;100613.13;1761567;79;20991;-73
2021/10/16 08:10:02;;;;;;;6.93;4.47;;;;;;;27.02;26.22;100614.78;1759304;79;21939;-73
2021/10/16 08:12:30;;;;;;;6.33;4.83;;;;;;;27.20;25.84;100612.74;1761273;79;21189;-72
2021/10/16 08:14:58;;;;;;;9.60;4.93;;;;;;;27.09;26.06;100604.55;1758487;79;21055;-73
2021/10/16 08:17:25;;;;;;;12.37;7.60;;;;;;;27.15;26.15;100603.41;1758309;79;21090;-72
2021/10/16 08:19:52;;;;;;;10.73;7.37;;;;;;;27.31;25.96;100607.50;1762089;78;22077;-72
2021/10/16 08:22:19;;;;;;;8.30;4.73;;;;;;;27.64;25.78;100588.88;1764292;79;21050;-73
2021/10/16 08:24:46;;;;;;;8.90;5.27;;;;;;;27.65;25.62;100591.80;1753556;79;21048;-72
2021/10/16 08:27:13;;;;;;;7.70;4.13;;;;;;;27.62;25.62;100587.05;1773041;79;21003;-71
2021/10/16 08:29:40;;;;;;;9.10;4.60;;;;;;;27.67;25.87;100580.27;1763392;79;22875;-71
2021/10/16 08:32:07;;;;;;;7.87;4.47;;;;;;;27.85;25.30;100584.87;1765795;79;21021;-72
2021/10/16 08:34:34;;;;;;;8.73;4.87;;;;;;;28.06;25.22;100576.52;1776375;79;20992;-72
2021/10/16 08:37:01;;;;;;;7.47;4.20;;;;;;;28.25;24.90;100577.27;1777557;80;21478;-74
2021/10/16 08:39:27;;;;;;;6.90;3.73;;;;;;;28.29;25.01;100583.63;1775420;78;21062;-72
2021/10/16 08:41:56;;;;;;;4.70;3.30;;;;;;;28.23;24.85;100575.44;1777672;78;21485;-74
2021/10/16 08:44:25;;;;;;;7.77;4.83;;;;;;;28.15;24.67;100573.44;1771854;78;21401;-72
2021/10/16 08:46:57;;;;;;;11.20;4.70;;;;;;;28.04;24.68;100573.34;1767355;79;21118;-73
2021/10/16 08:49:23;;;;;;;6.05;3.90;;;;;;;27.82;25.00;100570.70;1770718;79;20943;-71
2021/10/16 08:51:50;;;;;;;7.00;4.20;;;;;;;27.89;25.05;100568.47;1769098;78;20919;-73
2021/10/16 08:54:16;;;;;;;6.53;3.67;;;;;;;27.89;25.14;100565.78;1773260;79;22683;-71
2021/10/16 08:56:44;;;;;;;6.03;3.40;;;;;;;28.15;24.79;100568.07;1768814;78;21615;-73
2021/10/16 08:59:11;;;;;;;7.27;3.83;;;;;;;28.17;24.59;100569.90;1775940;79;21033;-75
2021/10/16 09:02:00;;;;;;;6.40;3.67;;;;;;;28.11;24.58;100567.86;1777666;78;20999;-74
2021/10/16 09:04:27;;;;;;;5.50;3.30;;;;;;;27.97;24.86;100561.64;1758679;78;22895;-73
2021/10/16 09:06:54;;;;;;;6.47;3.13;;;;;;;27.92;24.84;100566.27;1759885;79;21154;-74
2021/10/16 09:09:29;;;;;;;7.67;3.50;;;;;;;27.39;25.56;100556.02;1771272;79;20991;-74
2021/10/16 09:11:56;;;;;;;5.90;3.40;;;;;;;27.76;25.22;100562.48;1778347;78;20837;-70
2021/10/16 09:14:25;;;;;;;9.07;3.50;;;;;;;27.74;24.95;100557.98;1775558;78;21004;-73
2021/10/16 09:16:59;;;;;;;6.72;3.95;;;;;;;27.65;25.25;100554.31;1775197;78;21469;-71
2021/10/16 09:19:32;;;;;;;8.43;4.03;;;;;;;27.70;25.36;100554.80;1777686;78;21335;-75
2021/10/16 09:22:08;;;;;;;5.27;3.20;;;;;;;27.97;25.24;100555.50;1775990;78;20921;-75
2021/10/16 09:24:40;;;;;;;6.20;3.60;;;;;;;28.27;25.04;100560.36;1769143;78;21473;-70
2021/10/16 09:27:18;;;;;;;5.70;3.50;;;;;;;28.56;24.79;100548.61;1773872;80;21006;-76
2021/10/16 09:30:04;;;;;;;7.53;3.83;;;;;;;28.77;24.30;100541.78;1776342;78;21029;-75
2021/10/16 09:32:30;;;;;;;5.90;3.37;;;;;;;28.73;24.33;100537.31;1754857;79;21184;-72
2021/10/16 09:35:00;;;;;;;5.17;3.50;;;;;;;28.84;24.41;100532.80;1767643;79;21006;-73
2021/10/16 09:37:27;;;;;;;6.60;3.83;;;;;;;29.00;24.04;100521.78;1752298;79;21399;-72
2021/10/16 09:39:56;;;;;;;6.73;3.80;;;;;;;29.02;24.08;100522.30;1768120;79;21089;-73
2021/10/16 09:42:40;;;;;;;7.07;3.73;;;;;;;28.96;24.27;100524.79;1773383;79;21552;-70
2021/10/16 09:45:10;;;;;;;7.83;4.03;;;;;;;28.98;24.01;100513.22;1767577;78;22248;-70
2021/10/16 09:47:37;;;;;;;6.97;4.10;;;;;;;28.98;24.16;100506.52;1778538;79;21327;-70
2021/10/16 09:50:09;;;;;;;6.80;3.37;;;;;;;28.88;24.24;100500.00;1767282;80;21498;-69
2021/10/16 09:52:41;;;;;;;8.07;4.10;;;;;;;28.94;24.19;100490.73;1773962;80;21487;-69
2021/10/16 09:55:12;;;;;;;;;;;;;;;29.03;24.43;100486.30;1764960;80;22092;-73
2021/10/16 09:57:46;;;;;;;7.78;4.53;;;;;;;29.18;24.08;100489.20;1758213;80;21143;-72
2021/10/16 10:00:15;;;;;;;6.27;3.70;;;;;;;29.20;23.86;100491.81;1761362;79;20995;-70
2021/10/16 10:02:51;;;;;;;5.63;3.60;;;;;;;29.24;24.18;100486.08;1774653;80;21088;-71
2021/10/16 10:05:17;;;;;;;6.40;3.87;;;;;;;29.37;24.03;100486.38;1691899;80;21658;-72
2021/10/16 10:07:44;;;;;;;6.43;4.33;;;;;;;29.62;23.91;100488.48;1738948;80;21039;-69
2021/10/16 10:10:10;;;;;;;7.80;3.83;;;;;;;29.70;23.55;100484.27;1731356;80;21481;-71
2021/10/16 10:12:37;;;;;;;6.50;3.97;;;;;;;29.57;23.80;100480.00;1746859;80;21012;-70
2021/10/16 10:15:06;;;;;;;7.87;3.90;;;;;;;29.41;24.02;100478.74;1731810;81;21412;-72
2021/10/16 10:17:35;;;;;;;7.27;4.10;;;;;;;29.55;23.87;100475.47;1744909;80;21102;-70
2021/10/16 10:20:12;;;;;;;7.17;3.80;;;;;;;29.69;23.79;100479.45;1728871;81;21831;-70
2021/10/16 10:22:41;;;;;;;6.53;3.80;;;;;;;29.73;23.78;100477.73;1732754;80;21099;-70
2021/10/16 10:25:23;;;;;;;6.77;4.10;;;;;;;29.85;23.51;100468.32;1725352;80;21055;-70
2021/10/16 10:27:50;;;;;;;8.43;4.47;;;;;;;29.81;23.71;100467.61;1726247;80;21797;-72
2021/10/16 10:30:39;;;;;;;8.03;4.70;;;;;;;29.77;23.81;100454.52;1725628;80;20925;-72
2021/10/16 10:33:23;;;;;;;5.50;3.73;;;;;;;29.97;23.77;100449.76;1680714;81;21127;-73
2021/10/16 10:36:21;;;;;;;7.10;4.20;;;;;;;30.16;23.66;100442.29;1721372;80;20936;-75
2021/10/16 10:38:48;;;;;;;7.17;4.80;;;;;;;30.19;23.55;100437.64;1726019;80;21388;-74
2021/10/16 10:41:28;;;;;;;7.77;5.17;;;;;;;30.08;23.56;100437.64;1720385;80;20861;-72
2021/10/16 10:43:54;;;;;;;8.87;5.00;;;;;;;29.95;23.71;100436.61;1723956;80;21071;-72
2021/10/16 10:46:27;;;;;;;6.83;4.63;;;;;;;29.94;23.56;100436.93;1737961;80;21063;-74
2021/10/16 10:48:54;;;;;;;6.87;4.70;;;;;;;29.90;23.77;100427.90;1735129;80;22504;-73
2021/10/16 10:51:33;;;;;;;12.60;7.97;;;;;;;29.83;23.88;100426.20;1697757;81;20957;-72
2021/10/16 10:54:18;;;;;;;9.13;4.57;;;;;;;29.83;23.83;100424.86;1733985;80;20981;-70
2021/10/16 10:56:51;;;;;;;8.47;5.30;;;;;;;29.75;23.89;100426.39;1721811;80;21489;-73
2021/10/16 10:59:16;;;;;;;6.73;4.63;;;;;;;29.60;24.11;100422.74;1744953;81;21036;-72
2021/10/16 11:02:04;;;;;;;8.50;4.97;;;;;;;29.43;24.33;100422.82;1721258;81;21217;-71
2021/10/16 11:04:48;;;;;;;7.93;5.50;;;;;;;29.44;24.58;100416.92;1741134;81;21622;-73
2021/10/16 11:07:40;;;;;;;9.33;5.37;;;;;;;29.48;24.62;100409.84;1750172;81;21046;-73
2021/10/16 11:10:08;;;;;;;6.97;4.40;;;;;;;29.56;24.42;100401.83;1784615;78;20920;-73
2021/10/16 11:12:39;;;;;;;7.97;5.23;;;;;;;29.61;24.42;100403.63;1772343;79;21026;-71
2021/10/16 11:15:09;;;;;;;7.17;4.40;;;;;;;29.52;24.79;100394.70;1764193;78;21569;-72
2021/10/16 11:17:43;;;;;;;7.57;4.77;;;;;;;29.70;24.55;100391.57;1774601;79;20925;-71
2021/10/16 11:20:17;;;;;;;8.83;5.37;;;;;;;29.48;24.55;100391.04;1766844;78;21565;-69
2021/10/16 11:22:50;;;;;;;8.60;4.73;;;;;;;29.47;24.80;100391.59;1772253;78;21163;-68
2021/10/16 11:25:25;;;;;;;8.87;4.37;;;;;;;29.41;24.64;100389.33;1777734;78;22011;-67